LRCL/CLJ METAR and TAF weather

Enter ICAO airport designator
Station Type Date Time Source
LRCL METAR 2019/10/23 07:00 UTC NOAA

LRCL 230700Z VRB01KT 4000 BR NSC 10/06 Q1025


Station Type Date Time Source
LRCL Decoded METAR 2019/10/23 07:00 UTC NOAA

Cluj-Napoca, Romania (LRCL) 46-47N 023-34E 413M
Oct 23, 2019 - 03:00 AM EDT / 2019.10.23 0700 UTC
Wind: Variable at 1 MPH (1 KT):0
Visibility: 2 mile(s):0
Weather: mist
Temperature: 50 F (10 C)
Dew Point: 42 F (6 C)
Relative Humidity: 76%
Pressure (altimeter): 30.27 in. Hg (1025 hPa)
ob: LRCL 230700Z VRB01KT 4000 BR NSC 10/06 Q1025
cycle: 7

Station Type Date Time Source
LRCL TAF 2007/05/23 16:57 UTC NOAA

TAF
AMD LRCL 231657Z 231607 VRB02MPS 9999 SCT030 BKN080
TEMPO 1719 VRB15G20MPS 1500 TSRAGR SCT010 BKN020CB OVC080

Example: see airport list